Startpagina
METAR-TAF:

METAR-TAF

Vliegvelden :

Internationale luchthaven Kopenhagen Kastrup

Kopenhagen, Denemarken

breedte: 55-37N, lengte: 012-39E, hoogte: 5 m

Actueel weer

Dit bericht is 31 minuten geleden gemaakt, om 11:50 UTC
Wind 17 kt uit het oostnoordoosten met uitschieters tot 27 kt
Temperatuur 6°C
Vochtigheid 70%
Druk 1031 hPa
Zicht 10 km of meer
Gebroken wolken op 2500 ft

METAR: EKCH 191150Z 06017G27KT 9999 BKN025 06/01 Q1031 NOSIG

Tijdstip: 13:21 (12:21 UTC)

Verwachting

Dit bericht is 1 uur en het 20 minuten geleden gemaakt, om 11:01 UTC
Verwachting geldig van 19 om 12 UTC tot 20 om 12 UTC
Wind 15 kt uit het oostnoordoosten
Zicht 10 km of meer
Verspreide wolken op 2000 ft
Tijdelijke
van 19 om 12 UTC tot 19 om 21 UTC
Wind 18 kt uit het oostnoordoosten met uitschieters tot 28 kt
Tijdelijke
van 19 om 21 UTC tot 20 om 06 UTC
Gebroken wolken op 1200 ft, Stapelwolken.

TAF: EKCH 191101Z 1912/2012 06015KT 9999 SCT020 TEMPO 1912/1921 07018G28KT TEMPO 1921/2006 BKN012TCU

Waarnemingen en weersverwachtingen van meer dan 4000 vliegvelden (METAR en TAF).

De beschikbare stations zijn de gele en rode punten op de kaart.

Ga met uw muis naar het station om de naam te zien.

Klik dan om waarnemingen en weersverwachtingen te zien.

kaart wijzigen: klik op de groene knoppen met een zwart kruis om in te zoomen, op de groene knop met een streepje om uit te zoomen of op de groene pijlen voor aangrenzende kaarten.


METAR-TAF: